sensor_id;sensor_type;location;lat;lon;timestamp;temperature;humidity
35563;DHT22;21665;40.108;18.302;2024-03-06T00:02:21;9.40;99.90
35563;DHT22;21665;40.108;18.302;2024-03-06T00:04:47;9.50;99.90
35563;DHT22;21665;40.108;18.302;2024-03-06T00:07:14;9.40;99.90
35563;DHT22;21665;40.108;18.302;2024-03-06T00:09:40;9.50;99.90
35563;DHT22;21665;40.108;18.302;2024-03-06T00:12:07;9.40;99.90
35563;DHT22;21665;40.108;18.302;2024-03-06T00:14:33;9.30;99.90
35563;DHT22;21665;40.108;18.302;2024-03-06T00:17:03;9.40;99.90
35563;DHT22;21665;40.108;18.302;2024-03-06T00:19:33;9.40;99.90
35563;DHT22;21665;40.108;18.302;2024-03-06T00:22:00;9.50;99.90
35563;DHT22;21665;40.108;18.302;2024-03-06T00:24:27;9.40;99.90
35563;DHT22;21665;40.108;18.302;2024-03-06T00:26:57;9.40;99.90
35563;DHT22;21665;40.108;18.302;2024-03-06T00:29:24;9.30;99.90
35563;DHT22;21665;40.108;18.302;2024-03-06T00:31:50;9.40;99.90
35563;DHT22;21665;40.108;18.302;2024-03-06T00:34:16;9.40;99.90
35563;DHT22;21665;40.108;18.302;2024-03-06T00:36:43;9.40;99.90
35563;DHT22;21665;40.108;18.302;2024-03-06T00:39:10;9.40;99.90
35563;DHT22;21665;40.108;18.302;2024-03-06T00:41:37;9.40;99.90
35563;DHT22;21665;40.108;18.302;2024-03-06T00:44:06;9.40;99.90
35563;DHT22;21665;40.108;18.302;2024-03-06T00:46:33;9.30;99.90
35563;DHT22;21665;40.108;18.302;2024-03-06T00:48:59;9.30;99.90
35563;DHT22;21665;40.108;18.302;2024-03-06T00:51:26;9.20;99.90
35563;DHT22;21665;40.108;18.302;2024-03-06T00:53:52;9.10;99.90
35563;DHT22;21665;40.108;18.302;2024-03-06T00:56:19;9.00;99.90
35563;DHT22;21665;40.108;18.302;2024-03-06T00:58:46;8.90;99.90
35563;DHT22;21665;40.108;18.302;2024-03-06T01:01:14;8.80;99.90
35563;DHT22;21665;40.108;18.302;2024-03-06T01:03:42;8.70;99.90
35563;DHT22;21665;40.108;18.302;2024-03-06T01:06:08;8.70;99.90
35563;DHT22;21665;40.108;18.302;2024-03-06T01:08:35;8.60;99.90
35563;DHT22;21665;40.108;18.302;2024-03-06T01:11:01;8.50;99.90
35563;DHT22;21665;40.108;18.302;2024-03-06T01:13:29;8.50;99.90
35563;DHT22;21665;40.108;18.302;2024-03-06T01:15:55;8.40;99.90
35563;DHT22;21665;40.108;18.302;2024-03-06T01:18:22;8.50;99.90
35563;DHT22;21665;40.108;18.302;2024-03-06T01:20:49;8.50;99.90
35563;DHT22;21665;40.108;18.302;2024-03-06T01:23:18;8.50;99.90
35563;DHT22;21665;40.108;18.302;2024-03-06T01:25:45;8.50;99.90
35563;DHT22;21665;40.108;18.302;2024-03-06T01:28:14;8.40;99.90
35563;DHT22;21665;40.108;18.302;2024-03-06T01:30:41;8.40;99.90
35563;DHT22;21665;40.108;18.302;2024-03-06T01:33:07;8.30;99.90
35563;DHT22;21665;40.108;18.302;2024-03-06T01:35:33;8.30;99.90
35563;DHT22;21665;40.108;18.302;2024-03-06T01:38:00;8.30;99.90
35563;DHT22;21665;40.108;18.302;2024-03-06T01:40:27;8.20;99.90
35563;DHT22;21665;40.108;18.302;2024-03-06T01:42:55;8.20;99.90
35563;DHT22;21665;40.108;18.302;2024-03-06T01:45:22;8.10;99.90
35563;DHT22;21665;40.108;18.302;2024-03-06T01:47:49;8.10;99.90
35563;DHT22;21665;40.108;18.302;2024-03-06T01:50:17;8.00;99.90
35563;DHT22;21665;40.108;18.302;2024-03-06T01:52:43;8.00;99.90
35563;DHT22;21665;40.108;18.302;2024-03-06T01:55:11;8.00;99.90
35563;DHT22;21665;40.108;18.302;2024-03-06T01:57:39;8.00;99.90
35563;DHT22;21665;40.108;18.302;2024-03-06T02:00:08;8.00;99.90
35563;DHT22;21665;40.108;18.302;2024-03-06T02:02:41;8.00;99.90
35563;DHT22;21665;40.108;18.302;2024-03-06T02:05:09;7.90;99.90
35563;DHT22;21665;40.108;18.302;2024-03-06T02:07:38;7.90;99.90
35563;DHT22;21665;40.108;18.302;2024-03-06T02:10:14;7.80;99.90
35563;DHT22;21665;40.108;18.302;2024-03-06T02:12:41;7.80;99.90
35563;DHT22;21665;40.108;18.302;2024-03-06T02:15:08;7.70;99.90
35563;DHT22;21665;40.108;18.302;2024-03-06T02:17:34;7.70;99.90
35563;DHT22;21665;40.108;18.302;2024-03-06T02:20:02;7.60;99.90
35563;DHT22;21665;40.108;18.302;2024-03-06T02:22:32;7.60;99.90
35563;DHT22;21665;40.108;18.302;2024-03-06T02:24:59;7.60;99.90
35563;DHT22;21665;40.108;18.302;2024-03-06T02:27:25;7.60;99.90
35563;DHT22;21665;40.108;18.302;2024-03-06T02:29:52;7.60;99.90
35563;DHT22;21665;40.108;18.302;2024-03-06T02:32:18;7.60;99.90
35563;DHT22;21665;40.108;18.302;2024-03-06T02:34:44;7.60;99.90
35563;DHT22;21665;40.108;18.302;2024-03-06T02:37:11;7.60;99.90
35563;DHT22;21665;40.108;18.302;2024-03-06T02:39:37;7.60;99.90
35563;DHT22;21665;40.108;18.302;2024-03-06T02:42:03;7.60;99.90
35563;DHT22;21665;40.108;18.302;2024-03-06T02:44:30;7.50;99.90
35563;DHT22;21665;40.108;18.302;2024-03-06T02:46:56;7.50;99.90
35563;DHT22;21665;40.108;18.302;2024-03-06T02:49:23;7.60;99.90
35563;DHT22;21665;40.108;18.302;2024-03-06T02:51:49;7.60;99.90
35563;DHT22;21665;40.108;18.302;2024-03-06T02:54:19;7.50;99.90
35563;DHT22;21665;40.108;18.302;2024-03-06T02:56:45;7.40;99.90
35563;DHT22;21665;40.108;18.302;2024-03-06T02:59:11;7.40;99.90
35563;DHT22;21665;40.108;18.302;2024-03-06T03:01:43;7.40;99.90
35563;DHT22;21665;40.108;18.302;2024-03-06T03:04:10;7.30;99.90
35563;DHT22;21665;40.108;18.302;2024-03-06T03:06:37;7.40;99.90
35563;DHT22;21665;40.108;18.302;2024-03-06T03:09:03;7.40;99.90
35563;DHT22;21665;40.108;18.302;2024-03-06T03:11:30;7.40;99.90
35563;DHT22;21665;40.108;18.302;2024-03-06T03:13:57;7.30;99.90
35563;DHT22;21665;40.108;18.302;2024-03-06T03:16:24;7.30;99.90
35563;DHT22;21665;40.108;18.302;2024-03-06T03:18:53;7.30;99.90
35563;DHT22;21665;40.108;18.302;2024-03-06T03:21:20;7.20;99.90
35563;DHT22;21665;40.108;18.302;2024-03-06T03:23:47;7.10;99.90
35563;DHT22;21665;40.108;18.302;2024-03-06T03:26:16;7.10;99.90
35563;DHT22;21665;40.108;18.302;2024-03-06T03:28:42;7.00;99.90
35563;DHT22;21665;40.108;18.302;2024-03-06T03:31:12;7.00;99.90
35563;DHT22;21665;40.108;18.302;2024-03-06T03:33:44;7.00;99.90
35563;DHT22;21665;40.108;18.302;2024-03-06T03:36:10;7.00;99.90
35563;DHT22;21665;40.108;18.302;2024-03-06T03:38:40;7.00;99.90
35563;DHT22;21665;40.108;18.302;2024-03-06T03:41:11;6.90;99.90
35563;DHT22;21665;40.108;18.302;2024-03-06T03:43:46;6.90;99.90
35563;DHT22;21665;40.108;18.302;2024-03-06T03:46:12;6.90;99.90
35563;DHT22;21665;40.108;18.302;2024-03-06T03:48:40;6.90;99.90
35563;DHT22;21665;40.108;18.302;2024-03-06T03:51:06;6.90;99.90
35563;DHT22;21665;40.108;18.302;2024-03-06T03:53:33;6.80;99.90
35563;DHT22;21665;40.108;18.302;2024-03-06T03:56:00;6.80;99.90
35563;DHT22;21665;40.108;18.302;2024-03-06T03:58:27;6.90;99.90
35563;DHT22;21665;40.108;18.302;2024-03-06T04:00:56;6.90;99.90
35563;DHT22;21665;40.108;18.302;2024-03-06T04:03:23;6.80;99.90
35563;DHT22;21665;40.108;18.302;2024-03-06T04:05:50;6.80;99.90
35563;DHT22;21665;40.108;18.302;2024-03-06T04:08:16;6.70;99.90
35563;DHT22;21665;40.108;18.302;2024-03-06T04:10:43;6.70;99.90
35563;DHT22;21665;40.108;18.302;2024-03-06T04:13:14;6.70;99.90
35563;DHT22;21665;40.108;18.302;2024-03-06T04:15:43;6.70;99.90
35563;DHT22;21665;40.108;18.302;2024-03-06T04:18:09;6.70;99.90
35563;DHT22;21665;40.108;18.302;2024-03-06T04:20:35;6.70;99.90
35563;DHT22;21665;40.108;18.302;2024-03-06T04:23:02;6.60;99.90
35563;DHT22;21665;40.108;18.302;2024-03-06T04:25:29;6.60;99.90
35563;DHT22;21665;40.108;18.302;2024-03-06T04:27:55;6.50;99.90
35563;DHT22;21665;40.108;18.302;2024-03-06T04:30:21;6.50;99.90
35563;DHT22;21665;40.108;18.302;2024-03-06T04:32:48;6.50;99.90
35563;DHT22;21665;40.108;18.302;2024-03-06T04:35:15;6.50;99.90
35563;DHT22;21665;40.108;18.302;2024-03-06T04:37:42;6.50;99.90
35563;DHT22;21665;40.108;18.302;2024-03-06T04:40:10;6.50;99.90
35563;DHT22;21665;40.108;18.302;2024-03-06T04:42:37;6.40;99.90
35563;DHT22;21665;40.108;18.302;2024-03-06T04:45:08;6.50;99.90
35563;DHT22;21665;40.108;18.302;2024-03-06T04:47:35;6.50;99.90
35563;DHT22;21665;40.108;18.302;2024-03-06T04:50:01;6.40;99.90
35563;DHT22;21665;40.108;18.302;2024-03-06T04:52:28;6.40;99.90
35563;DHT22;21665;40.108;18.302;2024-03-06T04:54:55;6.40;99.90
35563;DHT22;21665;40.108;18.302;2024-03-06T04:57:21;6.40;99.90
35563;DHT22;21665;40.108;18.302;2024-03-06T04:59:48;6.40;99.90
35563;DHT22;21665;40.108;18.302;2024-03-06T05:02:18;6.40;99.90
35563;DHT22;21665;40.108;18.302;2024-03-06T05:04:44;6.30;99.90
35563;DHT22;21665;40.108;18.302;2024-03-06T05:07:13;6.30;99.90
35563;DHT22;21665;40.108;18.302;2024-03-06T05:09:40;6.20;99.90
35563;DHT22;21665;40.108;18.302;2024-03-06T05:12:09;6.20;99.90
35563;DHT22;21665;40.108;18.302;2024-03-06T05:14:36;6.20;99.90
35563;DHT22;21665;40.108;18.302;2024-03-06T05:17:03;6.10;99.90
35563;DHT22;21665;40.108;18.302;2024-03-06T05:19:29;6.10;99.90
35563;DHT22;21665;40.108;18.302;2024-03-06T05:22:01;6.10;99.90
35563;DHT22;21665;40.108;18.302;2024-03-06T05:24:27;6.20;99.90
35563;DHT22;21665;40.108;18.302;2024-03-06T05:26:53;6.20;99.90
35563;DHT22;21665;40.108;18.302;2024-03-06T05:29:20;6.20;99.90
35563;DHT22;21665;40.108;18.302;2024-03-06T05:31:47;6.30;99.90
35563;DHT22;21665;40.108;18.302;2024-03-06T05:34:13;6.40;99.90
35563;DHT22;21665;40.108;18.302;2024-03-06T05:36:40;6.50;99.90
35563;DHT22;21665;40.108;18.302;2024-03-06T05:39:07;6.60;99.90
35563;DHT22;21665;40.108;18.302;2024-03-06T05:41:39;6.60;99.90
35563;DHT22;21665;40.108;18.302;2024-03-06T05:44:06;6.60;99.90
35563;DHT22;21665;40.108;18.302;2024-03-06T05:46:33;6.70;99.90
35563;DHT22;21665;40.108;18.302;2024-03-06T05:49:00;6.70;99.90
35563;DHT22;21665;40.108;18.302;2024-03-06T05:51:28;6.80;99.90
35563;DHT22;21665;40.108;18.302;2024-03-06T05:53:54;6.90;99.90
35563;DHT22;21665;40.108;18.302;2024-03-06T05:56:21;7.00;99.90
35563;DHT22;21665;40.108;18.302;2024-03-06T05:58:48;7.10;99.90
35563;DHT22;21665;40.108;18.302;2024-03-06T06:01:15;7.30;99.90
35563;DHT22;21665;40.108;18.302;2024-03-06T06:03:47;7.40;99.90
35563;DHT22;21665;40.108;18.302;2024-03-06T06:06:17;7.40;99.90
35563;DHT22;21665;40.108;18.302;2024-03-06T06:08:47;7.60;99.90
35563;DHT22;21665;40.108;18.302;2024-03-06T06:11:13;7.70;99.90
35563;DHT22;21665;40.108;18.302;2024-03-06T06:13:40;8.00;99.90
35563;DHT22;21665;40.108;18.302;2024-03-06T06:16:07;8.20;99.90
35563;DHT22;21665;40.108;18.302;2024-03-06T06:18:36;8.50;99.90
35563;DHT22;21665;40.108;18.302;2024-03-06T06:21:03;8.80;99.90
35563;DHT22;21665;40.108;18.302;2024-03-06T06:23:34;9.10;99.90
35563;DHT22;21665;40.108;18.302;2024-03-06T06:26:00;9.30;99.90
35563;DHT22;21665;40.108;18.302;2024-03-06T06:28:29;9.70;99.90
35563;DHT22;21665;40.108;18.302;2024-03-06T06:30:55;10.10;99.90
35563;DHT22;21665;40.108;18.302;2024-03-06T06:33:25;10.30;99.90
35563;DHT22;21665;40.108;18.302;2024-03-06T06:35:52;10.70;99.90
35563;DHT22;21665;40.108;18.302;2024-03-06T06:38:20;10.90;99.90
35563;DHT22;21665;40.108;18.302;2024-03-06T06:40:46;11.10;99.90
35563;DHT22;21665;40.108;18.302;2024-03-06T06:43:14;11.40;99.90
35563;DHT22;21665;40.108;18.302;2024-03-06T06:45:42;11.70;99.90
35563;DHT22;21665;40.108;18.302;2024-03-06T06:48:08;12.10;99.90
35563;DHT22;21665;40.108;18.302;2024-03-06T06:50:35;12.30;99.90
35563;DHT22;21665;40.108;18.302;2024-03-06T06:53:02;12.50;99.90
35563;DHT22;21665;40.108;18.302;2024-03-06T06:55:29;12.70;99.90
35563;DHT22;21665;40.108;18.302;2024-03-06T06:57:55;12.90;99.90
35563;DHT22;21665;40.108;18.302;2024-03-06T07:00:25;13.20;99.90
35563;DHT22;21665;40.108;18.302;2024-03-06T07:02:52;13.50;99.90
35563;DHT22;21665;40.108;18.302;2024-03-06T07:05:19;13.70;99.90
35563;DHT22;21665;40.108;18.302;2024-03-06T07:07:45;13.90;99.90
35563;DHT22;21665;40.108;18.302;2024-03-06T07:10:12;14.00;99.90
35563;DHT22;21665;40.108;18.302;2024-03-06T07:12:40;14.50;99.90
35563;DHT22;21665;40.108;18.302;2024-03-06T07:15:07;14.60;99.90
35563;DHT22;21665;40.108;18.302;2024-03-06T07:17:34;14.80;99.90
35563;DHT22;21665;40.108;18.302;2024-03-06T07:20:01;15.00;99.90
35563;DHT22;21665;40.108;18.302;2024-03-06T07:22:31;15.10;99.90
35563;DHT22;21665;40.108;18.302;2024-03-06T07:25:00;15.80;99.90
35563;DHT22;21665;40.108;18.302;2024-03-06T07:27:32;15.90;99.90
35563;DHT22;21665;40.108;18.302;2024-03-06T07:30:02;16.50;99.90
35563;DHT22;21665;40.108;18.302;2024-03-06T07:32:31;16.40;99.90
35563;DHT22;21665;40.108;18.302;2024-03-06T07:34:58;16.50;99.90
35563;DHT22;21665;40.108;18.302;2024-03-06T07:37:24;16.70;99.90
35563;DHT22;21665;40.108;18.302;2024-03-06T07:39:51;16.80;99.90
35563;DHT22;21665;40.108;18.302;2024-03-06T07:42:18;17.00;99.90
35563;DHT22;21665;40.108;18.302;2024-03-06T07:44:46;17.20;99.90
35563;DHT22;21665;40.108;18.302;2024-03-06T07:47:14;17.40;99.90
35563;DHT22;21665;40.108;18.302;2024-03-06T07:49:41;17.40;99.90
35563;DHT22;21665;40.108;18.302;2024-03-06T07:52:08;17.50;99.90
35563;DHT22;21665;40.108;18.302;2024-03-06T07:54:35;17.70;99.90
35563;DHT22;21665;40.108;18.302;2024-03-06T07:57:02;18.00;99.90
35563;DHT22;21665;40.108;18.302;2024-03-06T07:59:29;18.10;99.90
35563;DHT22;21665;40.108;18.302;2024-03-06T08:01:55;18.30;99.90
35563;DHT22;21665;40.108;18.302;2024-03-06T08:04:22;18.50;99.90
35563;DHT22;21665;40.108;18.302;2024-03-06T08:06:49;18.90;99.90
35563;DHT22;21665;40.108;18.302;2024-03-06T08:09:16;18.60;99.90
35563;DHT22;21665;40.108;18.302;2024-03-06T08:12:02;18.30;99.90
35563;DHT22;21665;40.108;18.302;2024-03-06T08:14:29;18.10;99.90
35563;DHT22;21665;40.108;18.302;2024-03-06T08:16:56;17.60;99.90
35563;DHT22;21665;40.108;18.302;2024-03-06T08:19:23;17.20;99.90
35563;DHT22;21665;40.108;18.302;2024-03-06T08:21:51;17.20;99.90
35563;DHT22;21665;40.108;18.302;2024-03-06T08:24:18;17.50;99.90
35563;DHT22;21665;40.108;18.302;2024-03-06T08:26:44;17.50;99.90
35563;DHT22;21665;40.108;18.302;2024-03-06T08:29:11;17.50;99.90
35563;DHT22;21665;40.108;18.302;2024-03-06T08:31:38;17.60;99.90
35563;DHT22;21665;40.108;18.302;2024-03-06T08:34:05;17.70;99.90
35563;DHT22;21665;40.108;18.302;2024-03-06T08:36:31;17.70;99.90
35563;DHT22;21665;40.108;18.302;2024-03-06T08:38:58;18.30;99.90
35563;DHT22;21665;40.108;18.302;2024-03-06T08:41:25;17.90;99.90
35563;DHT22;21665;40.108;18.302;2024-03-06T08:43:51;17.60;99.90
35563;DHT22;21665;40.108;18.302;2024-03-06T08:46:18;17.30;99.90
35563;DHT22;21665;40.108;18.302;2024-03-06T08:48:45;17.40;99.90
35563;DHT22;21665;40.108;18.302;2024-03-06T08:51:12;17.70;99.90
35563;DHT22;21665;40.108;18.302;2024-03-06T08:53:39;18.00;99.90
35563;DHT22;21665;40.108;18.302;2024-03-06T08:56:06;18.20;99.90
35563;DHT22;21665;40.108;18.302;2024-03-06T08:58:33;18.50;99.90
35563;DHT22;21665;40.108;18.302;2024-03-06T09:01:01;18.30;99.90
35563;DHT22;21665;40.108;18.302;2024-03-06T09:03:27;18.30;99.90
35563;DHT22;21665;40.108;18.302;2024-03-06T09:05:54;18.20;99.90
35563;DHT22;21665;40.108;18.302;2024-03-06T09:08:21;18.00;99.90
35563;DHT22;21665;40.108;18.302;2024-03-06T09:10:47;18.00;99.90
35563;DHT22;21665;40.108;18.302;2024-03-06T09:13:14;18.00;99.90
35563;DHT22;21665;40.108;18.302;2024-03-06T09:15:40;18.00;99.90
35563;DHT22;21665;40.108;18.302;2024-03-06T09:18:06;17.90;99.90
35563;DHT22;21665;40.108;18.302;2024-03-06T09:20:33;17.80;99.90
35563;DHT22;21665;40.108;18.302;2024-03-06T09:23:00;17.90;99.90
35563;DHT22;21665;40.108;18.302;2024-03-06T09:25:28;18.10;99.90
35563;DHT22;21665;40.108;18.302;2024-03-06T09:27:57;18.00;99.90
35563;DHT22;21665;40.108;18.302;2024-03-06T09:30:23;17.90;99.90
35563;DHT22;21665;40.108;18.302;2024-03-06T09:32:50;17.80;99.90
35563;DHT22;21665;40.108;18.302;2024-03-06T09:35:17;17.80;99.90
35563;DHT22;21665;40.108;18.302;2024-03-06T09:37:47;17.80;99.90
35563;DHT22;21665;40.108;18.302;2024-03-06T09:40:22;17.80;99.90
35563;DHT22;21665;40.108;18.302;2024-03-06T09:42:51;17.90;99.90
35563;DHT22;21665;40.108;18.302;2024-03-06T09:45:18;18.00;99.90
35563;DHT22;21665;40.108;18.302;2024-03-06T09:47:47;18.30;99.90
35563;DHT22;21665;40.108;18.302;2024-03-06T09:50:18;18.20;99.90
35563;DHT22;21665;40.108;18.302;2024-03-06T09:52:52;18.10;99.90
35563;DHT22;21665;40.108;18.302;2024-03-06T09:55:20;18.10;99.90
35563;DHT22;21665;40.108;18.302;2024-03-06T09:57:48;18.10;99.90
35563;DHT22;21665;40.108;18.302;2024-03-06T10:00:17;18.20;99.90
35563;DHT22;21665;40.108;18.302;2024-03-06T10:03:01;18.30;99.90
35563;DHT22;21665;40.108;18.302;2024-03-06T10:05:36;18.20;99.90
35563;DHT22;21665;40.108;18.302;2024-03-06T10:08:09;18.30;99.90
35563;DHT22;21665;40.108;18.302;2024-03-06T10:10:36;18.30;99.90
35563;DHT22;21665;40.108;18.302;2024-03-06T10:13:03;18.00;99.90
35563;DHT22;21665;40.108;18.302;2024-03-06T10:15:31;18.00;99.90
35563;DHT22;21665;40.108;18.302;2024-03-06T10:18:15;18.00;99.90
35563;DHT22;21665;40.108;18.302;2024-03-06T10:20:44;18.10;99.90
35563;DHT22;21665;40.108;18.302;2024-03-06T10:23:12;18.00;99.90
35563;DHT22;21665;40.108;18.302;2024-03-06T10:25:38;18.10;99.90
35563;DHT22;21665;40.108;18.302;2024-03-06T10:30:40;18.10;99.90
35563;DHT22;21665;40.108;18.302;2024-03-06T10:33:15;17.90;99.90
35563;DHT22;21665;40.108;18.302;2024-03-06T10:35:43;18.00;99.90
35563;DHT22;21665;40.108;18.302;2024-03-06T10:38:11;18.40;99.90
35563;DHT22;21665;40.108;18.302;2024-03-06T10:40:41;18.50;99.90
35563;DHT22;21665;40.108;18.302;2024-03-06T10:43:09;18.20;99.90
35563;DHT22;21665;40.108;18.302;2024-03-06T10:46:02;18.10;99.90
35563;DHT22;21665;40.108;18.302;2024-03-06T10:48:34;18.10;99.90
35563;DHT22;21665;40.108;18.302;2024-03-06T10:51:02;18.10;99.90
35563;DHT22;21665;40.108;18.302;2024-03-06T10:53:30;18.30;99.90
35563;DHT22;21665;40.108;18.302;2024-03-06T10:55:59;18.30;99.90
35563;DHT22;21665;40.108;18.302;2024-03-06T10:58:27;18.50;99.90
35563;DHT22;21665;40.108;18.302;2024-03-06T11:00:58;18.60;99.90
35563;DHT22;21665;40.108;18.302;2024-03-06T11:03:25;18.60;99.90
35563;DHT22;21665;40.108;18.302;2024-03-06T11:05:52;18.90;99.90
35563;DHT22;21665;40.108;18.302;2024-03-06T11:08:19;18.90;99.90
35563;DHT22;21665;40.108;18.302;2024-03-06T11:10:46;18.90;99.90
35563;DHT22;21665;40.108;18.302;2024-03-06T11:13:26;19.00;99.90
35563;DHT22;21665;40.108;18.302;2024-03-06T11:15:57;18.90;99.90
35563;DHT22;21665;40.108;18.302;2024-03-06T11:23:32;18.60;99.90
35563;DHT22;21665;40.108;18.302;2024-03-06T11:26:06;18.50;99.90
35563;DHT22;21665;40.108;18.302;2024-03-06T11:28:38;18.50;99.90
35563;DHT22;21665;40.108;18.302;2024-03-06T11:31:10;18.40;99.90
35563;DHT22;21665;40.108;18.302;2024-03-06T11:33:52;18.50;99.90
35563;DHT22;21665;40.108;18.302;2024-03-06T11:36:26;18.60;99.90
35563;DHT22;21665;40.108;18.302;2024-03-06T11:39:07;18.50;99.90
35563;DHT22;21665;40.108;18.302;2024-03-06T11:41:50;18.50;99.90
35563;DHT22;21665;40.108;18.302;2024-03-06T11:44:18;18.40;99.90
35563;DHT22;21665;40.108;18.302;2024-03-06T11:47:02;18.50;99.90
35563;DHT22;21665;40.108;18.302;2024-03-06T11:49:33;18.40;99.90
35563;DHT22;21665;40.108;18.302;2024-03-06T11:52:04;18.40;99.90
35563;DHT22;21665;40.108;18.302;2024-03-06T11:54:32;18.50;99.90
35563;DHT22;21665;40.108;18.302;2024-03-06T11:57:01;18.40;99.90
35563;DHT22;21665;40.108;18.302;2024-03-06T11:59:30;18.50;99.90
35563;DHT22;21665;40.108;18.302;2024-03-06T12:02:02;18.40;99.90
35563;DHT22;21665;40.108;18.302;2024-03-06T12:04:32;18.30;99.90
35563;DHT22;21665;40.108;18.302;2024-03-06T12:07:01;18.30;99.90
35563;DHT22;21665;40.108;18.302;2024-03-06T12:09:37;18.30;99.90
35563;DHT22;21665;40.108;18.302;2024-03-06T12:12:05;18.30;99.90
35563;DHT22;21665;40.108;18.302;2024-03-06T12:14:35;18.10;99.90
35563;DHT22;21665;40.108;18.302;2024-03-06T12:17:03;18.10;99.90
35563;DHT22;21665;40.108;18.302;2024-03-06T12:19:37;18.20;99.90
35563;DHT22;21665;40.108;18.302;2024-03-06T12:22:04;18.30;99.90
35563;DHT22;21665;40.108;18.302;2024-03-06T12:24:31;18.40;99.90
35563;DHT22;21665;40.108;18.302;2024-03-06T12:27:02;18.50;99.90
35563;DHT22;21665;40.108;18.302;2024-03-06T12:29:32;18.30;99.90
35563;DHT22;21665;40.108;18.302;2024-03-06T12:32:00;18.20;99.90
35563;DHT22;21665;40.108;18.302;2024-03-06T12:34:31;18.20;99.90
35563;DHT22;21665;40.108;18.302;2024-03-06T12:37:09;18.50;99.90
35563;DHT22;21665;40.108;18.302;2024-03-06T12:39:37;18.50;99.90
35563;DHT22;21665;40.108;18.302;2024-03-06T12:42:04;18.40;99.90
35563;DHT22;21665;40.108;18.302;2024-03-06T12:44:32;18.20;99.90
35563;DHT22;21665;40.108;18.302;2024-03-06T12:46:59;18.20;99.90
35563;DHT22;21665;40.108;18.302;2024-03-06T12:49:26;18.30;99.90
35563;DHT22;21665;40.108;18.302;2024-03-06T12:51:53;18.00;99.90
35563;DHT22;21665;40.108;18.302;2024-03-06T12:54:20;18.00;99.90
35563;DHT22;21665;40.108;18.302;2024-03-06T12:56:46;18.00;99.90
35563;DHT22;21665;40.108;18.302;2024-03-06T12:59:13;18.10;99.90
35563;DHT22;21665;40.108;18.302;2024-03-06T13:01:39;18.20;99.90
35563;DHT22;21665;40.108;18.302;2024-03-06T13:04:06;18.50;99.90
35563;DHT22;21665;40.108;18.302;2024-03-06T13:06:34;18.50;99.90
35563;DHT22;21665;40.108;18.302;2024-03-06T13:09:00;18.50;99.90
35563;DHT22;21665;40.108;18.302;2024-03-06T13:11:27;18.40;99.90
35563;DHT22;21665;40.108;18.302;2024-03-06T13:13:54;18.30;99.90
35563;DHT22;21665;40.108;18.302;2024-03-06T13:16:24;18.40;99.90
35563;DHT22;21665;40.108;18.302;2024-03-06T13:18:51;18.30;99.90
35563;DHT22;21665;40.108;18.302;2024-03-06T13:21:20;18.30;99.90
35563;DHT22;21665;40.108;18.302;2024-03-06T13:23:47;18.30;99.90
35563;DHT22;21665;40.108;18.302;2024-03-06T13:26:14;18.20;99.90
35563;DHT22;21665;40.108;18.302;2024-03-06T13:28:46;18.20;99.90
35563;DHT22;21665;40.108;18.302;2024-03-06T13:31:14;18.20;99.90
35563;DHT22;21665;40.108;18.302;2024-03-06T13:33:41;18.30;99.90
35563;DHT22;21665;40.108;18.302;2024-03-06T13:36:09;18.30;99.90
35563;DHT22;21665;40.108;18.302;2024-03-06T13:38:37;18.10;99.90
35563;DHT22;21665;40.108;18.302;2024-03-06T13:41:04;18.30;99.90
35563;DHT22;21665;40.108;18.302;2024-03-06T13:43:31;18.50;99.90
35563;DHT22;21665;40.108;18.302;2024-03-06T13:45:59;18.50;99.90
35563;DHT22;21665;40.108;18.302;2024-03-06T13:48:25;18.50;99.90
35563;DHT22;21665;40.108;18.302;2024-03-06T13:50:52;18.40;99.90
35563;DHT22;21665;40.108;18.302;2024-03-06T13:53:19;18.30;99.90
35563;DHT22;21665;40.108;18.302;2024-03-06T13:55:46;18.40;99.90
35563;DHT22;21665;40.108;18.302;2024-03-06T13:58:28;18.40;99.90
35563;DHT22;21665;40.108;18.302;2024-03-06T14:00:54;18.30;99.90
35563;DHT22;21665;40.108;18.302;2024-03-06T14:03:21;18.30;99.90
35563;DHT22;21665;40.108;18.302;2024-03-06T14:05:48;18.30;99.90
35563;DHT22;21665;40.108;18.302;2024-03-06T14:08:14;18.20;99.90
35563;DHT22;21665;40.108;18.302;2024-03-06T14:10:43;18.10;99.90
35563;DHT22;21665;40.108;18.302;2024-03-06T14:13:11;18.10;99.90
35563;DHT22;21665;40.108;18.302;2024-03-06T14:15:38;17.90;99.90
35563;DHT22;21665;40.108;18.302;2024-03-06T14:18:05;17.60;99.90
35563;DHT22;21665;40.108;18.302;2024-03-06T14:20:32;17.30;99.90
35563;DHT22;21665;40.108;18.302;2024-03-06T14:22:59;17.30;99.90
35563;DHT22;21665;40.108;18.302;2024-03-06T14:25:28;17.20;99.90
35563;DHT22;21665;40.108;18.302;2024-03-06T14:27:55;17.20;99.90
35563;DHT22;21665;40.108;18.302;2024-03-06T14:30:22;17.20;99.90
35563;DHT22;21665;40.108;18.302;2024-03-06T14:32:49;17.20;99.90
35563;DHT22;21665;40.108;18.302;2024-03-06T14:35:15;17.20;99.90
35563;DHT22;21665;40.108;18.302;2024-03-06T14:37:42;17.20;99.90
35563;DHT22;21665;40.108;18.302;2024-03-06T14:40:09;17.20;99.90
35563;DHT22;21665;40.108;18.302;2024-03-06T14:42:36;17.10;99.90
35563;DHT22;21665;40.108;18.302;2024-03-06T14:45:03;17.10;99.90
35563;DHT22;21665;40.108;18.302;2024-03-06T14:47:32;17.10;99.90
35563;DHT22;21665;40.108;18.302;2024-03-06T14:49:59;17.00;99.90
35563;DHT22;21665;40.108;18.302;2024-03-06T14:52:25;17.10;99.90
35563;DHT22;21665;40.108;18.302;2024-03-06T14:54:52;17.10;99.90
35563;DHT22;21665;40.108;18.302;2024-03-06T14:57:18;17.00;99.90
35563;DHT22;21665;40.108;18.302;2024-03-06T14:59:46;16.90;99.90
35563;DHT22;21665;40.108;18.302;2024-03-06T15:02:13;16.80;99.90
35563;DHT22;21665;40.108;18.302;2024-03-06T15:04:41;16.80;99.90
35563;DHT22;21665;40.108;18.302;2024-03-06T15:07:08;16.80;99.90
35563;DHT22;21665;40.108;18.302;2024-03-06T15:09:36;16.80;99.90
35563;DHT22;21665;40.108;18.302;2024-03-06T15:12:02;16.80;99.90
35563;DHT22;21665;40.108;18.302;2024-03-06T15:14:30;16.80;99.90
35563;DHT22;21665;40.108;18.302;2024-03-06T15:16:57;16.80;99.90
35563;DHT22;21665;40.108;18.302;2024-03-06T15:19:24;16.70;99.90
35563;DHT22;21665;40.108;18.302;2024-03-06T15:21:51;16.70;99.90
35563;DHT22;21665;40.108;18.302;2024-03-06T15:24:18;16.50;99.90
35563;DHT22;21665;40.108;18.302;2024-03-06T15:26:45;16.40;99.90
35563;DHT22;21665;40.108;18.302;2024-03-06T15:29:11;16.20;99.90
35563;DHT22;21665;40.108;18.302;2024-03-06T15:31:38;16.10;99.90
35563;DHT22;21665;40.108;18.302;2024-03-06T15:34:05;16.00;99.90
35563;DHT22;21665;40.108;18.302;2024-03-06T15:36:32;16.10;99.90